sensor_id;sensor_type;location;lat;lon;timestamp;P1;durP1;ratioP1;P2;durP2;ratioP2
17528;SDS011;8882;53.192;8.184;2023-06-10T07:02:05;5.03;;;2.93;;
17528;SDS011;8882;53.192;8.184;2023-06-10T07:04:31;3.03;;;2.63;;
17528;SDS011;8882;53.192;8.184;2023-06-10T07:06:56;7.50;;;3.37;;
17528;SDS011;8882;53.192;8.184;2023-06-10T07:09:22;3.77;;;3.10;;
17528;SDS011;8882;53.192;8.184;2023-06-10T07:11:47;6.40;;;3.73;;
17528;SDS011;8882;53.192;8.184;2023-06-10T07:14:13;6.13;;;3.10;;
17528;SDS011;8882;53.192;8.184;2023-06-10T07:16:38;4.83;;;3.30;;
17528;SDS011;8882;53.192;8.184;2023-06-10T07:19:04;6.03;;;3.27;;
17528;SDS011;8882;53.192;8.184;2023-06-10T07:21:29;6.57;;;2.73;;
17528;SDS011;8882;53.192;8.184;2023-06-10T07:23:55;3.33;;;3.03;;
17528;SDS011;8882;53.192;8.184;2023-06-10T07:26:21;5.70;;;3.17;;
17528;SDS011;8882;53.192;8.184;2023-06-10T07:28:47;8.57;;;3.47;;
17528;SDS011;8882;53.192;8.184;2023-06-10T07:31:13;6.40;;;3.67;;
17528;SDS011;8882;53.192;8.184;2023-06-10T07:33:38;5.67;;;3.63;;
17528;SDS011;8882;53.192;8.184;2023-06-10T07:36:04;7.00;;;3.87;;
17528;SDS011;8882;53.192;8.184;2023-06-10T07:38:33;5.13;;;3.73;;
17528;SDS011;8882;53.192;8.184;2023-06-10T07:40:59;7.87;;;3.17;;
17528;SDS011;8882;53.192;8.184;2023-06-10T07:43:24;3.60;;;3.00;;
17528;SDS011;8882;53.192;8.184;2023-06-10T07:45:50;7.03;;;4.13;;
17528;SDS011;8882;53.192;8.184;2023-06-10T07:48:15;6.47;;;3.57;;
17528;SDS011;8882;53.192;8.184;2023-06-10T07:50:41;4.53;;;3.70;;
17528;SDS011;8882;53.192;8.184;2023-06-10T07:53:06;8.47;;;3.47;;
17528;SDS011;8882;53.192;8.184;2023-06-10T07:55:32;5.23;;;3.93;;
17528;SDS011;8882;53.192;8.184;2023-06-10T07:57:57;4.23;;;3.40;;
17528;SDS011;8882;53.192;8.184;2023-06-10T08:00:23;7.43;;;4.20;;
17528;SDS011;8882;53.192;8.184;2023-06-10T08:02:49;4.18;;;3.30;;
17528;SDS011;8882;53.192;8.184;2023-06-10T08:05:15;6.32;;;3.67;;
17528;SDS011;8882;53.192;8.184;2023-06-10T08:07:41;5.50;;;3.40;;
17528;SDS011;8882;53.192;8.184;2023-06-10T08:10:07;6.13;;;3.47;;
17528;SDS011;8882;53.192;8.184;2023-06-10T08:12:33;4.20;;;3.50;;
17528;SDS011;8882;53.192;8.184;2023-06-10T08:14:59;8.02;;;3.95;;
17528;SDS011;8882;53.192;8.184;2023-06-10T08:17:25;5.70;;;3.92;;
17528;SDS011;8882;53.192;8.184;2023-06-10T08:19:51;5.75;;;3.78;;
17528;SDS011;8882;53.192;8.184;2023-06-10T08:22:16;5.60;;;3.92;;
17528;SDS011;8882;53.192;8.184;2023-06-10T08:24:42;10.52;;;3.95;;
17528;SDS011;8882;53.192;8.184;2023-06-10T08:27:08;6.90;;;4.03;;
17528;SDS011;8882;53.192;8.184;2023-06-10T08:29:33;8.68;;;4.20;;
17528;SDS011;8882;53.192;8.184;2023-06-10T08:31:59;5.68;;;3.90;;
17528;SDS011;8882;53.192;8.184;2023-06-10T08:34:25;5.55;;;3.85;;
17528;SDS011;8882;53.192;8.184;2023-06-10T08:36:50;7.10;;;3.90;;
17528;SDS011;8882;53.192;8.184;2023-06-10T08:39:18;6.30;;;4.13;;
17528;SDS011;8882;53.192;8.184;2023-06-10T08:41:45;7.88;;;4.65;;
17528;SDS011;8882;53.192;8.184;2023-06-10T08:44:41;6.65;;;3.58;;
17528;SDS011;8882;53.192;8.184;2023-06-10T08:47:12;4.85;;;3.63;;
17528;SDS011;8882;53.192;8.184;2023-06-10T08:49:41;9.15;;;3.92;;
17528;SDS011;8882;53.192;8.184;2023-06-10T08:52:14;4.85;;;3.35;;
17528;SDS011;8882;53.192;8.184;2023-06-10T08:54:42;5.50;;;3.35;;
17528;SDS011;8882;53.192;8.184;2023-06-10T08:57:13;6.03;;;3.70;;
17528;SDS011;8882;53.192;8.184;2023-06-10T08:59:40;4.90;;;3.33;;
17528;SDS011;8882;53.192;8.184;2023-06-10T09:02:06;6.43;;;3.40;;
17528;SDS011;8882;53.192;8.184;2023-06-10T09:04:33;6.40;;;3.67;;
17528;SDS011;8882;53.192;8.184;2023-06-10T09:07:01;5.65;;;3.65;;
17528;SDS011;8882;53.192;8.184;2023-06-10T09:09:27;4.22;;;2.83;;
17528;SDS011;8882;53.192;8.184;2023-06-10T09:11:55;6.05;;;3.40;;
17528;SDS011;8882;53.192;8.184;2023-06-10T09:14:21;5.35;;;3.15;;
17528;SDS011;8882;53.192;8.184;2023-06-10T09:16:46;4.10;;;3.25;;
17528;SDS011;8882;53.192;8.184;2023-06-10T09:19:13;7.43;;;3.60;;
17528;SDS011;8882;53.192;8.184;2023-06-10T09:21:41;4.78;;;3.13;;
17528;SDS011;8882;53.192;8.184;2023-06-10T09:24:06;10.77;;;3.17;;
17528;SDS011;8882;53.192;8.184;2023-06-10T09:26:32;9.88;;;3.03;;
17528;SDS011;8882;53.192;8.184;2023-06-10T09:29:02;4.07;;;2.95;;
17528;SDS011;8882;53.192;8.184;2023-06-10T09:31:29;4.05;;;2.90;;
17528;SDS011;8882;53.192;8.184;2023-06-10T09:34:04;5.25;;;2.70;;
17528;SDS011;8882;53.192;8.184;2023-06-10T09:36:36;5.18;;;2.20;;
17528;SDS011;8882;53.192;8.184;2023-06-10T09:39:02;4.97;;;2.63;;
17528;SDS011;8882;53.192;8.184;2023-06-10T09:41:31;6.40;;;2.55;;
17528;SDS011;8882;53.192;8.184;2023-06-10T09:44:01;7.57;;;2.88;;
17528;SDS011;8882;53.192;8.184;2023-06-10T09:46:30;6.70;;;3.03;;
17528;SDS011;8882;53.192;8.184;2023-06-10T09:48:59;3.45;;;2.60;;
17528;SDS011;8882;53.192;8.184;2023-06-10T09:51:25;8.75;;;2.80;;
17528;SDS011;8882;53.192;8.184;2023-06-10T09:53:51;4.80;;;2.47;;
17528;SDS011;8882;53.192;8.184;2023-06-10T09:56:17;7.28;;;2.70;;
17528;SDS011;8882;53.192;8.184;2023-06-10T09:58:44;5.15;;;2.50;;
17528;SDS011;8882;53.192;8.184;2023-06-10T10:01:11;7.40;;;2.40;;
17528;SDS011;8882;53.192;8.184;2023-06-10T10:03:48;3.65;;;2.13;;
17528;SDS011;8882;53.192;8.184;2023-06-10T10:06:16;7.10;;;2.60;;
17528;SDS011;8882;53.192;8.184;2023-06-10T10:08:43;3.53;;;2.33;;
17528;SDS011;8882;53.192;8.184;2023-06-10T10:11:10;5.78;;;2.53;;
17528;SDS011;8882;53.192;8.184;2023-06-10T10:13:36;3.15;;;2.03;;
17528;SDS011;8882;53.192;8.184;2023-06-10T10:16:04;9.90;;;2.55;;
17528;SDS011;8882;53.192;8.184;2023-06-10T10:18:35;4.18;;;1.77;;
17528;SDS011;8882;53.192;8.184;2023-06-10T10:21:07;3.88;;;2.20;;
17528;SDS011;8882;53.192;8.184;2023-06-10T10:26:22;2.72;;;2.15;;
17528;SDS011;8882;53.192;8.184;2023-06-10T10:28:58;4.40;;;2.00;;
17528;SDS011;8882;53.192;8.184;2023-06-10T10:31:35;2.95;;;2.17;;
17528;SDS011;8882;53.192;8.184;2023-06-10T10:34:04;5.53;;;2.47;;
17528;SDS011;8882;53.192;8.184;2023-06-10T10:36:32;5.00;;;1.90;;
17528;SDS011;8882;53.192;8.184;2023-06-10T10:38:58;4.53;;;2.35;;
17528;SDS011;8882;53.192;8.184;2023-06-10T10:41:26;4.93;;;1.85;;
17528;SDS011;8882;53.192;8.184;2023-06-10T10:43:53;4.55;;;2.03;;
17528;SDS011;8882;53.192;8.184;2023-06-10T10:46:19;3.20;;;1.83;;
17528;SDS011;8882;53.192;8.184;2023-06-10T10:48:44;4.25;;;1.98;;
17528;SDS011;8882;53.192;8.184;2023-06-10T10:51:16;4.65;;;2.20;;
17528;SDS011;8882;53.192;8.184;2023-06-10T10:53:42;4.18;;;2.33;;
17528;SDS011;8882;53.192;8.184;2023-06-10T10:56:13;3.00;;;2.08;;
17528;SDS011;8882;53.192;8.184;2023-06-10T10:58:40;2.22;;;1.48;;
17528;SDS011;8882;53.192;8.184;2023-06-10T11:01:12;4.55;;;2.35;;
17528;SDS011;8882;53.192;8.184;2023-06-10T11:03:42;1.75;;;1.40;;
17528;SDS011;8882;53.192;8.184;2023-06-10T11:06:13;5.65;;;2.28;;
17528;SDS011;8882;53.192;8.184;2023-06-10T11:11:19;5.63;;;1.98;;
17528;SDS011;8882;53.192;8.184;2023-06-10T11:13:58;3.15;;;2.00;;
17528;SDS011;8882;53.192;8.184;2023-06-10T11:16:28;3.05;;;1.88;;
17528;SDS011;8882;53.192;8.184;2023-06-10T11:18:57;1.95;;;1.45;;
17528;SDS011;8882;53.192;8.184;2023-06-10T11:21:26;6.47;;;1.95;;
17528;SDS011;8882;53.192;8.184;2023-06-10T11:23:57;3.92;;;2.05;;
17528;SDS011;8882;53.192;8.184;2023-06-10T11:31:49;4.40;;;2.22;;
17528;SDS011;8882;53.192;8.184;2023-06-10T11:34:22;3.90;;;2.20;;
17528;SDS011;8882;53.192;8.184;2023-06-10T11:37:02;3.85;;;1.90;;
17528;SDS011;8882;53.192;8.184;2023-06-10T11:39:30;2.88;;;2.00;;
17528;SDS011;8882;53.192;8.184;2023-06-10T11:41:59;4.97;;;1.90;;
17528;SDS011;8882;53.192;8.184;2023-06-10T11:44:25;6.47;;;2.70;;
17528;SDS011;8882;53.192;8.184;2023-06-10T11:46:56;2.53;;;1.63;;
17528;SDS011;8882;53.192;8.184;2023-06-10T11:49:22;4.07;;;1.92;;
17528;SDS011;8882;53.192;8.184;2023-06-10T11:51:49;2.90;;;1.83;;
17528;SDS011;8882;53.192;8.184;2023-06-10T11:54:16;3.80;;;1.85;;
17528;SDS011;8882;53.192;8.184;2023-06-10T11:56:42;2.67;;;1.90;;
17528;SDS011;8882;53.192;8.184;2023-06-10T11:59:08;5.43;;;1.70;;
17528;SDS011;8882;53.192;8.184;2023-06-10T12:01:38;2.30;;;1.70;;
17528;SDS011;8882;53.192;8.184;2023-06-10T12:04:07;4.43;;;1.90;;
17528;SDS011;8882;53.192;8.184;2023-06-10T12:06:37;2.97;;;1.65;;
17528;SDS011;8882;53.192;8.184;2023-06-10T12:09:04;4.13;;;1.88;;
17528;SDS011;8882;53.192;8.184;2023-06-10T12:11:30;4.15;;;1.77;;
17528;SDS011;8882;53.192;8.184;2023-06-10T12:13:56;6.20;;;2.33;;
17528;SDS011;8882;53.192;8.184;2023-06-10T12:16:22;3.95;;;1.83;;
17528;SDS011;8882;53.192;8.184;2023-06-10T12:18:48;4.47;;;1.80;;
17528;SDS011;8882;53.192;8.184;2023-06-10T12:21:18;2.38;;;2.15;;
17528;SDS011;8882;53.192;8.184;2023-06-10T12:29:12;2.15;;;1.63;;
17528;SDS011;8882;53.192;8.184;2023-06-10T12:32:11;4.10;;;1.65;;
17528;SDS011;8882;53.192;8.184;2023-06-10T12:34:36;2.22;;;1.48;;
17528;SDS011;8882;53.192;8.184;2023-06-10T12:37:03;4.18;;;1.85;;
17528;SDS011;8882;53.192;8.184;2023-06-10T12:39:30;2.03;;;1.35;;
17528;SDS011;8882;53.192;8.184;2023-06-10T12:41:57;2.08;;;1.35;;
17528;SDS011;8882;53.192;8.184;2023-06-10T12:44:29;5.00;;;1.95;;
17528;SDS011;8882;53.192;8.184;2023-06-10T12:46:59;4.75;;;1.73;;
17528;SDS011;8882;53.192;8.184;2023-06-10T12:49:25;2.88;;;1.55;;
17528;SDS011;8882;53.192;8.184;2023-06-10T12:51:51;3.42;;;1.70;;
17528;SDS011;8882;53.192;8.184;2023-06-10T12:54:17;2.25;;;1.58;;
17528;SDS011;8882;53.192;8.184;2023-06-10T12:56:43;3.28;;;1.58;;
17528;SDS011;8882;53.192;8.184;2023-06-10T12:59:08;3.20;;;1.50;;
17528;SDS011;8882;53.192;8.184;2023-06-10T13:01:34;1.83;;;1.40;;
17528;SDS011;8882;53.192;8.184;2023-06-10T13:03:59;2.40;;;1.52;;
17528;SDS011;8882;53.192;8.184;2023-06-10T13:06:25;1.98;;;1.50;;
17528;SDS011;8882;53.192;8.184;2023-06-10T13:08:51;2.85;;;1.52;;
17528;SDS011;8882;53.192;8.184;2023-06-10T13:11:16;3.65;;;1.98;;
17528;SDS011;8882;53.192;8.184;2023-06-10T13:13:42;2.05;;;1.42;;
17528;SDS011;8882;53.192;8.184;2023-06-10T13:16:07;1.58;;;1.20;;
17528;SDS011;8882;53.192;8.184;2023-06-10T13:18:33;2.50;;;1.60;;
17528;SDS011;8882;53.192;8.184;2023-06-10T13:21:02;3.10;;;1.30;;
17528;SDS011;8882;53.192;8.184;2023-06-10T13:23:28;3.30;;;1.25;;
17528;SDS011;8882;53.192;8.184;2023-06-10T13:25:54;2.65;;;1.48;;
17528;SDS011;8882;53.192;8.184;2023-06-10T13:28:20;2.88;;;1.48;;
17528;SDS011;8882;53.192;8.184;2023-06-10T13:30:46;5.03;;;1.40;;
17528;SDS011;8882;53.192;8.184;2023-06-10T13:33:11;1.67;;;1.30;;
17528;SDS011;8882;53.192;8.184;2023-06-10T13:35:37;1.98;;;1.10;;
17528;SDS011;8882;53.192;8.184;2023-06-10T13:38:03;1.85;;;1.30;;
17528;SDS011;8882;53.192;8.184;2023-06-10T13:40:28;1.50;;;1.30;;
17528;SDS011;8882;53.192;8.184;2023-06-10T13:42:54;2.20;;;1.45;;
17528;SDS011;8882;53.192;8.184;2023-06-10T13:45:20;2.15;;;1.27;;
17528;SDS011;8882;53.192;8.184;2023-06-10T13:47:45;2.25;;;1.33;;
17528;SDS011;8882;53.192;8.184;2023-06-10T13:50:10;2.13;;;1.27;;
17528;SDS011;8882;53.192;8.184;2023-06-10T13:52:38;2.85;;;1.45;;
17528;SDS011;8882;53.192;8.184;2023-06-10T13:55:03;2.15;;;1.40;;
17528;SDS011;8882;53.192;8.184;2023-06-10T13:57:29;1.30;;;1.20;;
17528;SDS011;8882;53.192;8.184;2023-06-10T13:59:55;1.70;;;1.15;;
17528;SDS011;8882;53.192;8.184;2023-06-10T14:02:21;2.40;;;1.40;;
17528;SDS011;8882;53.192;8.184;2023-06-10T14:04:47;1.90;;;1.33;;
17528;SDS011;8882;53.192;8.184;2023-06-10T14:07:12;2.80;;;1.30;;
17528;SDS011;8882;53.192;8.184;2023-06-10T14:09:38;1.70;;;1.40;;
17528;SDS011;8882;53.192;8.184;2023-06-10T14:12:03;2.85;;;1.80;;
17528;SDS011;8882;53.192;8.184;2023-06-10T14:14:30;1.75;;;1.45;;
17528;SDS011;8882;53.192;8.184;2023-06-10T14:16:58;1.38;;;1.10;;
17528;SDS011;8882;53.192;8.184;2023-06-10T14:19:24;2.25;;;1.30;;
17528;SDS011;8882;53.192;8.184;2023-06-10T14:21:49;2.65;;;1.70;;
17528;SDS011;8882;53.192;8.184;2023-06-10T14:24:14;2.03;;;1.50;;
17528;SDS011;8882;53.192;8.184;2023-06-10T14:26:40;2.88;;;1.58;;
17528;SDS011;8882;53.192;8.184;2023-06-10T14:29:05;3.30;;;1.80;;
17528;SDS011;8882;53.192;8.184;2023-06-10T14:31:32;3.22;;;1.45;;
17528;SDS011;8882;53.192;8.184;2023-06-10T14:33:57;4.45;;;1.63;;
17528;SDS011;8882;53.192;8.184;2023-06-10T14:36:23;4.55;;;1.90;;
17528;SDS011;8882;53.192;8.184;2023-06-10T14:38:49;3.17;;;1.98;;
17528;SDS011;8882;53.192;8.184;2023-06-10T14:41:14;2.72;;;1.83;;
17528;SDS011;8882;53.192;8.184;2023-06-10T14:43:40;2.05;;;1.60;;
17528;SDS011;8882;53.192;8.184;2023-06-10T14:46:06;2.83;;;1.55;;
17528;SDS011;8882;53.192;8.184;2023-06-10T14:48:31;3.58;;;1.85;;
17528;SDS011;8882;53.192;8.184;2023-06-10T14:50:57;4.07;;;1.63;;
17528;SDS011;8882;53.192;8.184;2023-06-10T14:53:22;4.13;;;1.90;;
17528;SDS011;8882;53.192;8.184;2023-06-10T14:55:48;3.20;;;1.80;;
17528;SDS011;8882;53.192;8.184;2023-06-10T14:58:13;2.90;;;1.48;;
17528;SDS011;8882;53.192;8.184;2023-06-10T15:00:39;1.90;;;1.70;;
17528;SDS011;8882;53.192;8.184;2023-06-10T15:03:04;1.80;;;1.42;;
17528;SDS011;8882;53.192;8.184;2023-06-10T15:05:30;3.10;;;1.70;;
17528;SDS011;8882;53.192;8.184;2023-06-10T15:07:55;3.30;;;1.60;;
17528;SDS011;8882;53.192;8.184;2023-06-10T15:10:21;3.13;;;2.00;;
17528;SDS011;8882;53.192;8.184;2023-06-10T15:12:47;4.05;;;1.60;;
17528;SDS011;8882;53.192;8.184;2023-06-10T15:15:20;3.95;;;1.88;;
17528;SDS011;8882;53.192;8.184;2023-06-10T15:17:45;4.88;;;2.22;;
17528;SDS011;8882;53.192;8.184;2023-06-10T15:20:11;3.10;;;1.80;;
17528;SDS011;8882;53.192;8.184;2023-06-10T15:22:36;6.93;;;1.92;;
17528;SDS011;8882;53.192;8.184;2023-06-10T15:25:02;2.22;;;1.95;;
17528;SDS011;8882;53.192;8.184;2023-06-10T15:27:27;5.53;;;1.80;;
17528;SDS011;8882;53.192;8.184;2023-06-10T15:29:53;4.20;;;2.45;;
17528;SDS011;8882;53.192;8.184;2023-06-10T15:32:18;3.67;;;2.15;;
17528;SDS011;8882;53.192;8.184;2023-06-10T15:34:44;4.78;;;2.25;;
17528;SDS011;8882;53.192;8.184;2023-06-10T15:37:12;3.05;;;1.80;;
17528;SDS011;8882;53.192;8.184;2023-06-10T15:39:38;2.72;;;2.00;;
17528;SDS011;8882;53.192;8.184;2023-06-10T15:42:04;2.92;;;2.08;;
17528;SDS011;8882;53.192;8.184;2023-06-10T15:44:30;3.75;;;2.10;;
17528;SDS011;8882;53.192;8.184;2023-06-10T15:46:55;2.97;;;1.77;;
17528;SDS011;8882;53.192;8.184;2023-06-10T15:49:21;3.28;;;2.08;;
17528;SDS011;8882;53.192;8.184;2023-06-10T15:51:46;3.78;;;2.20;;
17528;SDS011;8882;53.192;8.184;2023-06-10T15:54:12;3.67;;;2.00;;
17528;SDS011;8882;53.192;8.184;2023-06-10T15:56:37;5.35;;;2.22;;
17528;SDS011;8882;53.192;8.184;2023-06-10T15:59:04;2.65;;;2.13;;
17528;SDS011;8882;53.192;8.184;2023-06-10T16:01:30;4.30;;;2.65;;
17528;SDS011;8882;53.192;8.184;2023-06-10T16:03:55;3.28;;;2.15;;
17528;SDS011;8882;53.192;8.184;2023-06-10T16:06:21;4.15;;;2.25;;
17528;SDS011;8882;53.192;8.184;2023-06-10T16:08:47;3.47;;;2.05;;
17528;SDS011;8882;53.192;8.184;2023-06-10T16:11:12;3.60;;;2.47;;
17528;SDS011;8882;53.192;8.184;2023-06-10T16:13:38;2.95;;;2.08;;
17528;SDS011;8882;53.192;8.184;2023-06-10T16:16:06;2.72;;;2.38;;
17528;SDS011;8882;53.192;8.184;2023-06-10T16:18:31;3.30;;;2.00;;
17528;SDS011;8882;53.192;8.184;2023-06-10T16:20:57;2.90;;;2.28;;
17528;SDS011;8882;53.192;8.184;2023-06-10T16:23:22;5.70;;;2.20;;
17528;SDS011;8882;53.192;8.184;2023-06-10T16:25:48;3.92;;;2.08;;
17528;SDS011;8882;53.192;8.184;2023-06-10T16:28:13;3.10;;;2.50;;
17528;SDS011;8882;53.192;8.184;2023-06-10T16:30:39;5.30;;;2.53;;
17528;SDS011;8882;53.192;8.184;2023-06-10T16:33:04;6.93;;;2.28;;
17528;SDS011;8882;53.192;8.184;2023-06-10T16:35:30;6.75;;;3.13;;
17528;SDS011;8882;53.192;8.184;2023-06-10T16:37:56;3.15;;;2.22;;
17528;SDS011;8882;53.192;8.184;2023-06-10T16:40:21;2.95;;;2.42;;
17528;SDS011;8882;53.192;8.184;2023-06-10T16:42:47;3.63;;;2.80;;
17528;SDS011;8882;53.192;8.184;2023-06-10T16:45:12;3.15;;;2.60;;
17528;SDS011;8882;53.192;8.184;2023-06-10T16:47:38;4.68;;;3.10;;
17528;SDS011;8882;53.192;8.184;2023-06-10T16:50:04;5.63;;;2.65;;
17528;SDS011;8882;53.192;8.184;2023-06-10T16:52:29;4.70;;;3.22;;
17528;SDS011;8882;53.192;8.184;2023-06-10T16:54:55;3.05;;;2.75;;
17528;SDS011;8882;53.192;8.184;2023-06-10T16:57:21;4.53;;;2.60;;
17528;SDS011;8882;53.192;8.184;2023-06-10T16:59:46;5.18;;;3.40;;
17528;SDS011;8882;53.192;8.184;2023-06-10T17:02:12;18.88;;;10.65;;
17528;SDS011;8882;53.192;8.184;2023-06-10T17:04:38;8.65;;;4.50;;
17528;SDS011;8882;53.192;8.184;2023-06-10T17:07:03;6.32;;;3.30;;
17528;SDS011;8882;53.192;8.184;2023-06-10T17:09:29;5.57;;;2.92;;
17528;SDS011;8882;53.192;8.184;2023-06-10T17:11:55;7.10;;;2.90;;
17528;SDS011;8882;53.192;8.184;2023-06-10T17:14:20;4.15;;;2.80;;
17528;SDS011;8882;53.192;8.184;2023-06-10T17:16:50;4.07;;;3.13;;
17528;SDS011;8882;53.192;8.184;2023-06-10T17:19:15;5.47;;;3.45;;
17528;SDS011;8882;53.192;8.184;2023-06-10T17:21:41;8.02;;;4.05;;
17528;SDS011;8882;53.192;8.184;2023-06-10T17:24:06;7.97;;;3.22;;
17528;SDS011;8882;53.192;8.184;2023-06-10T17:26:32;3.63;;;2.78;;
17528;SDS011;8882;53.192;8.184;2023-06-10T17:28:58;4.22;;;3.22;;
17528;SDS011;8882;53.192;8.184;2023-06-10T17:31:23;4.40;;;3.47;;
17528;SDS011;8882;53.192;8.184;2023-06-10T17:33:49;3.78;;;3.15;;
17528;SDS011;8882;53.192;8.184;2023-06-10T17:36:14;6.22;;;3.22;;
17528;SDS011;8882;53.192;8.184;2023-06-10T17:38:39;3.83;;;2.90;;
17528;SDS011;8882;53.192;8.184;2023-06-10T17:41:05;3.05;;;2.70;;
17528;SDS011;8882;53.192;8.184;2023-06-10T17:43:32;5.07;;;3.10;;
17528;SDS011;8882;53.192;8.184;2023-06-10T17:45:57;5.07;;;3.00;;
17528;SDS011;8882;53.192;8.184;2023-06-10T17:48:23;3.15;;;2.83;;
17528;SDS011;8882;53.192;8.184;2023-06-10T17:50:48;5.13;;;3.00;;
17528;SDS011;8882;53.192;8.184;2023-06-10T17:53:14;3.75;;;2.75;;
17528;SDS011;8882;53.192;8.184;2023-06-10T17:55:40;5.90;;;3.22;;
17528;SDS011;8882;53.192;8.184;2023-06-10T17:58:05;6.85;;;2.80;;
17528;SDS011;8882;53.192;8.184;2023-06-10T18:00:31;6.03;;;2.72;;
17528;SDS011;8882;53.192;8.184;2023-06-10T18:02:56;4.20;;;2.90;;
17528;SDS011;8882;53.192;8.184;2023-06-10T18:05:22;5.78;;;2.58;;
17528;SDS011;8882;53.192;8.184;2023-06-10T18:07:47;5.25;;;3.33;;
17528;SDS011;8882;53.192;8.184;2023-06-10T18:10:13;3.75;;;3.25;;
17528;SDS011;8882;53.192;8.184;2023-06-10T18:12:39;4.78;;;3.30;;
17528;SDS011;8882;53.192;8.184;2023-06-10T18:15:04;5.65;;;3.33;;
17528;SDS011;8882;53.192;8.184;2023-06-10T18:17:31;3.00;;;2.72;;
17528;SDS011;8882;53.192;8.184;2023-06-10T18:19:58;5.53;;;2.95;;
17528;SDS011;8882;53.192;8.184;2023-06-10T18:22:24;3.45;;;2.75;;
17528;SDS011;8882;53.192;8.184;2023-06-10T18:24:49;3.95;;;2.72;;
17528;SDS011;8882;53.192;8.184;2023-06-10T18:27:15;4.72;;;2.88;;
17528;SDS011;8882;53.192;8.184;2023-06-10T18:29:41;4.03;;;2.63;;
17528;SDS011;8882;53.192;8.184;2023-06-10T18:32:06;3.33;;;2.40;;
17528;SDS011;8882;53.192;8.184;2023-06-10T18:34:32;3.42;;;2.25;;
17528;SDS011;8882;53.192;8.184;2023-06-10T18:36:58;4.28;;;2.40;;
17528;SDS011;8882;53.192;8.184;2023-06-10T18:39:23;3.42;;;2.42;;
17528;SDS011;8882;53.192;8.184;2023-06-10T18:41:49;4.93;;;2.50;;
17528;SDS011;8882;53.192;8.184;2023-06-10T18:44:15;3.47;;;2.15;;
17528;SDS011;8882;53.192;8.184;2023-06-10T18:46:40;3.63;;;2.28;;
17528;SDS011;8882;53.192;8.184;2023-06-10T18:49:06;2.92;;;2.20;;
17528;SDS011;8882;53.192;8.184;2023-06-10T18:51:31;5.32;;;2.35;;
17528;SDS011;8882;53.192;8.184;2023-06-10T18:53:57;8.25;;;2.90;;
17528;SDS011;8882;53.192;8.184;2023-06-10T18:56:22;3.58;;;2.20;;
17528;SDS011;8882;53.192;8.184;2023-06-10T18:58:48;4.68;;;2.17;;
17528;SDS011;8882;53.192;8.184;2023-06-10T19:01:15;5.82;;;2.72;;
17528;SDS011;8882;53.192;8.184;2023-06-10T19:03:41;3.35;;;2.10;;
17528;SDS011;8882;53.192;8.184;2023-06-10T19:06:06;2.97;;;2.30;;
17528;SDS011;8882;53.192;8.184;2023-06-10T19:08:32;4.03;;;2.13;;
17528;SDS011;8882;53.192;8.184;2023-06-10T19:10:57;3.00;;;2.38;;
17528;SDS011;8882;53.192;8.184;2023-06-10T19:13:23;3.05;;;2.58;;
17528;SDS011;8882;53.192;8.184;2023-06-10T19:15:49;2.88;;;2.17;;
17528;SDS011;8882;53.192;8.184;2023-06-10T19:18:15;5.50;;;2.60;;
17528;SDS011;8882;53.192;8.184;2023-06-10T19:20:40;3.10;;;2.33;;
17528;SDS011;8882;53.192;8.184;2023-06-10T19:23:07;5.47;;;2.83;;
17528;SDS011;8882;53.192;8.184;2023-06-10T19:25:33;4.65;;;2.63;;
17528;SDS011;8882;53.192;8.184;2023-06-10T19:27:58;2.78;;;2.55;;
17528;SDS011;8882;53.192;8.184;2023-06-10T19:30:24;4.82;;;3.20;;
17528;SDS011;8882;53.192;8.184;2023-06-10T19:32:49;3.65;;;2.88;;
17528;SDS011;8882;53.192;8.184;2023-06-10T19:35:16;5.00;;;3.17;;
17528;SDS011;8882;53.192;8.184;2023-06-10T19:37:41;5.30;;;3.13;;
17528;SDS011;8882;53.192;8.184;2023-06-10T19:40:07;7.55;;;3.40;;
17528;SDS011;8882;53.192;8.184;2023-06-10T19:42:33;7.32;;;3.45;;
17528;SDS011;8882;53.192;8.184;2023-06-10T19:45:02;4.47;;;2.92;;
17528;SDS011;8882;53.192;8.184;2023-06-10T19:47:28;5.18;;;3.03;;
17528;SDS011;8882;53.192;8.184;2023-06-10T19:49:54;5.68;;;2.95;;
17528;SDS011;8882;53.192;8.184;2023-06-10T19:52:19;7.28;;;3.30;;
17528;SDS011;8882;53.192;8.184;2023-06-10T19:54:45;4.25;;;3.05;;
17528;SDS011;8882;53.192;8.184;2023-06-10T19:57:11;4.10;;;2.60;;
17528;SDS011;8882;53.192;8.184;2023-06-10T19:59:36;6.97;;;3.03;;
17528;SDS011;8882;53.192;8.184;2023-06-10T20:02:02;6.88;;;2.88;;
17528;SDS011;8882;53.192;8.184;2023-06-10T20:04:27;6.28;;;2.40;;
17528;SDS011;8882;53.192;8.184;2023-06-10T20:06:53;6.07;;;2.88;;
17528;SDS011;8882;53.192;8.184;2023-06-10T20:09:19;3.53;;;2.40;;
17528;SDS011;8882;53.192;8.184;2023-06-10T20:11:44;4.60;;;2.67;;
17528;SDS011;8882;53.192;8.184;2023-06-10T20:14:10;4.38;;;2.78;;
17528;SDS011;8882;53.192;8.184;2023-06-10T20:16:36;4.80;;;2.70;;
17528;SDS011;8882;53.192;8.184;2023-06-10T20:19:01;9.25;;;2.83;;
17528;SDS011;8882;53.192;8.184;2023-06-10T20:21:27;5.70;;;3.10;;
17528;SDS011;8882;53.192;8.184;2023-06-10T20:23:53;3.42;;;2.72;;
17528;SDS011;8882;53.192;8.184;2023-06-10T20:26:19;3.65;;;2.80;;
17528;SDS011;8882;53.192;8.184;2023-06-10T20:28:45;4.13;;;2.88;;
17528;SDS011;8882;53.192;8.184;2023-06-10T20:31:11;3.60;;;2.83;;
17528;SDS011;8882;53.192;8.184;2023-06-10T20:33:37;4.47;;;2.72;;
17528;SDS011;8882;53.192;8.184;2023-06-10T20:36:02;4.32;;;2.95;;
17528;SDS011;8882;53.192;8.184;2023-06-10T20:38:28;4.45;;;2.95;;
17528;SDS011;8882;53.192;8.184;2023-06-10T20:40:53;4.43;;;2.70;;
17528;SDS011;8882;53.192;8.184;2023-06-10T20:43:19;3.83;;;2.47;;
17528;SDS011;8882;53.192;8.184;2023-06-10T20:45:45;4.72;;;2.45;;
17528;SDS011;8882;53.192;8.184;2023-06-10T20:48:10;6.07;;;2.75;;
17528;SDS011;8882;53.192;8.184;2023-06-10T20:50:36;3.28;;;2.90;;
17528;SDS011;8882;53.192;8.184;2023-06-10T20:53:01;3.08;;;1.92;;
17528;SDS011;8882;53.192;8.184;2023-06-10T20:55:27;3.50;;;2.65;;
17528;SDS011;8882;53.192;8.184;2023-06-10T20:57:53;3.95;;;2.67;;
